Time;durP1;ratioP1;P1;durP2;ratioP2;P2;SDS_P1;SDS_P2;PMS_P1;PMS_P2;Temp;Humidity;BMP_temperature;BMP_pressure;BME280_temperature;BME280_humidity;BME280_pressure;Samples;Min_cycle;Max_cycle;Signal;HPM_P1;HPM_P2
2023/01/14 00:00:07;;;;;;;;;;;;;;;;;;4979978;28;19917;-77
2023/01/14 00:02:33;;;;;;;;;;;;;;;;;;4997305;28;19917;-77
2023/01/14 00:04:59;;;;;;;;;;;;;;;;;;4979875;28;19918;-77
2023/01/14 00:07:25;;;;;;;;;;;;;;;;;;4980544;28;19916;-77
2023/01/14 00:09:51;;;;;;;;;;;;;;;;;;4999417;28;19910;-78
2023/01/14 00:12:17;;;;;;;;;;;;;;;;;;4985808;28;19973;-78
2023/01/14 00:14:43;;;;;;;;;;;;;;;;;;5007657;28;19910;-77
2023/01/14 00:17:09;;;;;;;;;;;;;;;;;;5001312;28;19910;-77
2023/01/14 00:19:35;;;;;;;;;;;;;;;;;;4996931;28;19918;-78
2023/01/14 00:22:01;;;;;;;;;;;;;;;;;;4979438;28;20383;-77
2023/01/14 00:24:27;;;;;;;;;;;;;;;;;;4979138;28;19945;-78
2023/01/14 00:26:52;;;;;;;;;;;;;;;;;;4997301;28;20008;-77
2023/01/14 00:29:18;;;;;;;;;;;;;;;;;;4996506;28;20008;-77
2023/01/14 00:31:44;;;;;;;;;;;;;;;;;;4979863;28;19910;-77
2023/01/14 00:34:10;;;;;;;;;;;;;;;;;;4979329;28;19968;-77
2023/01/14 00:36:36;;;;;;;;;;;;;;;;;;4979578;28;19933;-78
2023/01/14 00:39:02;;;;;;;;;;;;;;;;;;4978273;28;19914;-77
2023/01/14 00:41:28;;;;;;;;;;;;;;;;;;4979330;28;19910;-77
2023/01/14 00:43:54;;;;;;;;;;;;;;;;;;4979035;28;19933;-77
2023/01/14 00:46:20;;;;;;;;;;;;;;;;;;4979288;28;20318;-76
2023/01/14 00:48:45;;;;;;;;;;;;;;;;;;4996067;28;19910;-76
2023/01/14 00:51:11;;;;;;;;;;;;;;;;;;4996734;28;19910;-78
2023/01/14 00:53:37;;;;;;;;;;;;;;;;;;4996795;28;19910;-77
2023/01/14 00:56:03;;;;;;;;;;;;;;;;;;4978639;28;19951;-80
2023/01/14 00:58:29;;;;;;;;;;;;;;;;;;4978870;28;19960;-77
2023/01/14 01:00:55;;;;;;;;;;;;;;;;;;4978816;28;20378;-77
2023/01/14 01:03:21;;;;;;;;;;;;;;;;;;4996441;28;20009;-77
2023/01/14 01:05:47;;;;;;;;;;;;;;;;;;4996408;28;20012;-77
2023/01/14 01:08:13;;;;;;;;;;;;;;;;;;4978696;28;20382;-77
2023/01/14 01:10:39;;;;;;;;;;;;;;;;;;4979258;28;19920;-77
2023/01/14 01:13:04;;;;;;;;;;;;;;;;;;4978445;28;19949;-77
2023/01/14 01:15:30;;;;;;;;;;;;;;;;;;4995392;28;20012;-75
2023/01/14 01:17:56;;;;;;;;;;;;;;;;;;4995786;28;19911;-77
2023/01/14 01:20:22;;;;;;;;;;;;;;;;;;4978397;28;19925;-77
2023/01/14 01:22:48;;;;;;;;;;;;;;;;;;4995523;28;20370;-77
2023/01/14 01:25:14;;;;;;;;;;;;;;;;;;4977998;28;19921;-77
2023/01/14 01:27:40;;;;;;;;;;;;;;;;;;4977808;28;19917;-77
2023/01/14 01:30:06;;;;;;;;;;;;;;;;;;4995733;28;19910;-77
2023/01/14 01:32:32;;;;;;;;;;;;;;;;;;4995734;28;20036;-77
2023/01/14 01:34:58;;;;;;;;;;;;;;;;;;4995513;28;20286;-77
2023/01/14 01:37:24;;;;;;;;;;;;;;;;;;4978062;28;19913;-79
2023/01/14 01:39:50;;;;;;;;;;;;;;;;;;4978524;28;20337;-77
2023/01/14 01:42:16;;;;;;;;;;;;;;;;;;4980103;28;19910;-77
2023/01/14 01:44:42;;;;;;;;;;;;;;;;;;4982476;28;19936;-77
2023/01/14 01:47:08;;;;;;;;;;;;;;;;;;4982518;28;20279;-77
2023/01/14 01:49:33;;;;;;;;;;;;;;;;;;4982017;28;19910;-76
2023/01/14 01:51:59;;;;;;;;;;;;;;;;;;4982831;28;19916;-77
2023/01/14 01:54:25;;;;;;;;;;;;;;;;;;4999608;28;20267;-75
2023/01/14 01:56:51;;;;;;;;;;;;;;;;;;4998468;28;19965;-76
2023/01/14 01:59:17;;;;;;;;;;;;;;;;;;4981802;28;19910;-77
2023/01/14 02:01:43;;;;;;;;;;;;;;;;;;4982780;28;19945;-77
2023/01/14 02:04:09;;;;;;;;;;;;;;;;;;4981986;28;20008;-77
2023/01/14 02:06:35;;;;;;;;;;;;;;;;;;4981985;28;20338;-77
2023/01/14 02:09:00;;;;;;;;;;;;;;;;;;4982459;28;19968;-77
2023/01/14 02:11:26;;;;;;;;;;;;;;;;;;4999330;28;19909;-77
2023/01/14 02:13:52;;;;;;;;;;;;;;;;;;4999460;28;19910;-77
2023/01/14 02:16:18;;;;;;;;;;;;;;;;;;4999021;28;19910;-76
2023/01/14 02:18:44;;;;;;;;;;;;;;;;;;4998725;28;19910;-76
2023/01/14 02:21:10;;;;;;;;;;;;;;;;;;4981423;28;19968;-77
2023/01/14 02:23:36;;;;;;;;;;;;;;;;;;4999180;28;19909;-76
2023/01/14 02:26:02;;;;;;;;;;;;;;;;;;4999215;28;19968;-77
2023/01/14 02:28:28;;;;;;;;;;;;;;;;;;4998709;28;19945;-77
2023/01/14 02:30:54;;;;;;;;;;;;;;;;;;4981636;28;19910;-77
2023/01/14 02:33:20;;;;;;;;;;;;;;;;;;4981020;28;19913;-77
2023/01/14 02:35:46;;;;;;;;;;;;;;;;;;4999516;28;19910;-77
2023/01/14 02:38:12;;;;;;;;;;;;;;;;;;4998896;28;19917;-77
2023/01/14 02:40:38;;;;;;;;;;;;;;;;;;4980826;28;19914;-76
2023/01/14 02:45:49;;;;;;;;;;;;;;;;;;4998779;28;20015;-77
2023/01/14 02:48:14;;;;;;;;;;;;;;;;;;4998763;28;19914;-77
2023/01/14 02:50:40;;;;;;;;;;;;;;;;;;4999346;28;19914;-77
2023/01/14 02:53:06;;;;;;;;;;;;;;;;;;4997917;28;20362;-77
2023/01/14 02:55:32;;;;;;;;;;;;;;;;;;4998586;28;19964;-76
2023/01/14 02:57:58;;;;;;;;;;;;;;;;;;4981359;28;19910;-76
2023/01/14 03:00:24;;;;;;;;;;;;;;;;;;4981380;28;19980;-76
2023/01/14 03:02:50;;;;;;;;;;;;;;;;;;4998558;28;19913;-77
2023/01/14 03:05:16;;;;;;;;;;;;;;;;;;4998006;28;20474;-76
2023/01/14 03:07:42;;;;;;;;;;;;;;;;;;4998473;28;19941;-76
2023/01/14 03:10:07;;;;;;;;;;;;;;;;;;4980887;28;19910;-77
2023/01/14 03:12:33;;;;;;;;;;;;;;;;;;4997867;28;19960;-77
2023/01/14 03:14:59;;;;;;;;;;;;;;;;;;4980606;28;19910;-76
2023/01/14 03:17:25;;;;;;;;;;;;;;;;;;4997982;28;19996;-77
2023/01/14 03:19:51;;;;;;;;;;;;;;;;;;4980114;28;20392;-77
2023/01/14 03:22:17;;;;;;;;;;;;;;;;;;4980619;28;19910;-77
2023/01/14 03:24:43;;;;;;;;;;;;;;;;;;4980625;28;20294;-77
2023/01/14 03:27:09;;;;;;;;;;;;;;;;;;4981339;28;19910;-77
2023/01/14 03:29:35;;;;;;;;;;;;;;;;;;5000099;28;19916;-76
2023/01/14 03:32:01;;;;;;;;;;;;;;;;;;5007176;28;19917;-75
2023/01/14 03:34:27;;;;;;;;;;;;;;;;;;5014374;28;19910;-75
2023/01/14 03:36:53;;;;;;;;;;;;;;;;;;4985776;28;20367;-76
2023/01/14 03:39:19;;;;;;;;;;;;;;;;;;4979660;28;19917;-77
2023/01/14 03:44:29;;;;;;;;;;;;;;;;;;4997090;28;19921;-77
2023/01/14 03:46:55;;;;;;;;;;;;;;;;;;4979793;28;19909;-76
2023/01/14 03:49:21;;;;;;;;;;;;;;;;;;4997638;28;20335;-76
2023/01/14 03:51:47;;;;;;;;;;;;;;;;;;4997032;28;19921;-78
2023/01/14 03:54:13;;;;;;;;;;;;;;;;;;4997315;28;19910;-77
2023/01/14 03:56:39;;;;;;;;;;;;;;;;;;4979881;28;20351;-77
2023/01/14 03:59:05;;;;;;;;;;;;;;;;;;4979419;28;19910;-77
2023/01/14 04:01:31;;;;;;;;;;;;;;;;;;4979692;28;19952;-77
2023/01/14 04:03:57;;;;;;;;;;;;;;;;;;4979762;28;19910;-77
2023/01/14 04:06:22;;;;;;;;;;;;;;;;;;4979123;28;19960;-76
2023/01/14 04:08:48;;;;;;;;;;;;;;;;;;4996993;28;19913;-77
2023/01/14 04:11:14;;;;;;;;;;;;;;;;;;4996995;28;20377;-77
2023/01/14 04:16:25;;;;;;;;;;;;;;;;;;4996470;28;19917;-77
2023/01/14 04:18:51;;;;;;;;;;;;;;;;;;4979055;28;19918;-76
2023/01/14 04:21:16;;;;;;;;;;;;;;;;;;4997055;28;19933;-76
2023/01/14 04:23:42;;;;;;;;;;;;;;;;;;4996935;28;19910;-77
2023/01/14 04:26:08;;;;;;;;;;;;;;;;;;4996257;28;19914;-76
2023/01/14 04:28:34;;;;;;;;;;;;;;;;;;4995848;28;19941;-76
2023/01/14 04:31:00;;;;;;;;;;;;;;;;;;4978560;28;19914;-77
2023/01/14 04:33:26;;;;;;;;;;;;;;;;;;4979223;28;19916;-77
2023/01/14 04:35:52;;;;;;;;;;;;;;;;;;4978312;28;19910;-77
2023/01/14 04:38:18;;;;;;;;;;;;;;;;;;4979079;28;19917;-77
2023/01/14 04:40:44;;;;;;;;;;;;;;;;;;4996338;28;19914;-77
2023/01/14 04:43:10;;;;;;;;;;;;;;;;;;4996982;28;20028;-76
2023/01/14 04:45:35;;;;;;;;;;;;;;;;;;4995841;28;19914;-77
2023/01/14 04:48:01;;;;;;;;;;;;;;;;;;4979004;28;19949;-76
2023/01/14 04:50:30;;;;;;;;;;;;;;;;;;4979221;28;19910;-77
2023/01/14 04:52:56;;;;;;;;;;;;;;;;;;4996389;28;19910;-77
2023/01/14 04:55:22;;;;;;;;;;;;;;;;;;4978491;28;19910;-77
2023/01/14 04:57:48;;;;;;;;;;;;;;;;;;4978653;28;20286;-77
2023/01/14 05:00:14;;;;;;;;;;;;;;;;;;4978799;28;19953;-76
2023/01/14 05:02:40;;;;;;;;;;;;;;;;;;4995804;28;20200;-77
2023/01/14 05:05:06;;;;;;;;;;;;;;;;;;4977915;28;19914;-77
2023/01/14 05:07:31;;;;;;;;;;;;;;;;;;4995553;28;19913;-76
2023/01/14 05:09:57;;;;;;;;;;;;;;;;;;4995674;28;20387;-76
2023/01/14 05:12:23;;;;;;;;;;;;;;;;;;4995058;28;19917;-77
2023/01/14 05:14:49;;;;;;;;;;;;;;;;;;4978274;28;19914;-77
2023/01/14 05:17:15;;;;;;;;;;;;;;;;;;4977143;28;20252;-76
2023/01/14 05:19:41;;;;;;;;;;;;;;;;;;4978289;28;20445;-77
2023/01/14 05:22:07;;;;;;;;;;;;;;;;;;4978296;28;19911;-77
2023/01/14 05:24:33;;;;;;;;;;;;;;;;;;4978043;28;20363;-76
2023/01/14 05:26:59;;;;;;;;;;;;;;;;;;4977662;28;19917;-77
2023/01/14 05:29:25;;;;;;;;;;;;;;;;;;4976981;28;19910;-77
2023/01/14 05:31:51;;;;;;;;;;;;;;;;;;4994972;28;19909;-77
2023/01/14 05:34:18;;;;;;;;;;;;;;;;;;4978684;28;19973;-76
2023/01/14 05:36:44;;;;;;;;;;;;;;;;;;4978764;28;19910;-77
2023/01/14 05:39:10;;;;;;;;;;;;;;;;;;4978334;28;20013;-76
2023/01/14 05:45:37;;;;;;;;;;;;;;;;;;4978291;28;20004;-75
2023/01/14 05:47:06;;;;;;;;;;;;;;;;;;4995572;28;19917;-76
2023/01/14 05:49:32;;;;;;;;;;;;;;;;;;4995464;28;19909;-77
2023/01/14 05:51:58;;;;;;;;;;;;;;;;;;4977643;28;20260;-77
2023/01/14 05:54:24;;;;;;;;;;;;;;;;;;4978106;28;19910;-77
2023/01/14 05:56:50;;;;;;;;;;;;;;;;;;4995506;28;20039;-76
2023/01/14 05:59:16;;;;;;;;;;;;;;;;;;4977524;28;19917;-76
2023/01/14 06:07:11;;;;;;;;;;;;;;;;;;4995356;28;19916;-76
2023/01/14 06:09:39;;;;;;;;;;;;;;;;;;4994550;28;19992;-77
2023/01/14 06:12:06;;;;;;;;;;;;;;;;;;4995192;28;19964;-77
2023/01/14 06:14:32;;;;;;;;;;;;;;;;;;4994984;28;19910;-76
2023/01/14 06:16:58;;;;;;;;;;;;;;;;;;4981832;28;19910;-77
2023/01/14 06:19:24;;;;;;;;;;;;;;;;;;5001103;28;20355;-79
2023/01/14 06:21:50;;;;;;;;;;;;;;;;;;4985292;28;19914;-77
2023/01/14 06:24:16;;;;;;;;;;;;;;;;;;4984413;28;19937;-76
2023/01/14 06:26:42;;;;;;;;;;;;;;;;;;4987203;28;19953;-76
2023/01/14 06:29:08;;;;;;;;;;;;;;;;;;5003217;28;19981;-78
2023/01/14 06:31:33;;;;;;;;;;;;;;;;;;5004132;28;19909;-77
2023/01/14 06:34:01;;;;;;;;;;;;;;;;;;4980245;28;19910;-76
2023/01/14 06:36:27;;;;;;;;;;;;;;;;;;4997683;28;19910;-81
2023/01/14 06:38:53;;;;;;;;;;;;;;;;;;4998081;28;20373;-76
2023/01/14 06:41:19;;;;;;;;;;;;;;;;;;4980660;28;20009;-76
2023/01/14 06:43:45;;;;;;;;;;;;;;;;;;4981043;28;20009;-76
2023/01/14 06:46:11;;;;;;;;;;;;;;;;;;4982330;28;19922;-76
2023/01/14 06:48:37;;;;;;;;;;;;;;;;;;4996989;28;20364;-76
2023/01/14 06:51:03;;;;;;;;;;;;;;;;;;4981795;28;20385;-76
2023/01/14 06:53:29;;;;;;;;;;;;;;;;;;4998316;28;19910;-75
2023/01/14 06:55:55;;;;;;;;;;;;;;;;;;4979583;28;19910;-76
2023/01/14 06:58:21;;;;;;;;;;;;;;;;;;4980131;28;19914;-76
2023/01/14 07:00:47;;;;;;;;;;;;;;;;;;4979724;28;19933;-75
2023/01/14 07:03:13;;;;;;;;;;;;;;;;;;4997055;28;20306;-76
2023/01/14 07:05:38;;;;;;;;;;;;;;;;;;4996315;28;19917;-76
2023/01/14 07:08:04;;;;;;;;;;;;;;;;;;4978845;28;19910;-76
2023/01/14 07:10:30;;;;;;;;;;;;;;;;;;4996519;28;19932;-76
2023/01/14 07:12:56;;;;;;;;;;;;;;;;;;4996489;28;20363;-76
2023/01/14 07:15:22;;;;;;;;;;;;;;;;;;4996437;28;19910;-76
2023/01/14 07:17:48;;;;;;;;;;;;;;;;;;4978855;28;19910;-76
2023/01/14 07:22:50;;;;;;;;;;;;;;;;;;5767940;23;19926;-81
2023/01/14 07:25:16;;;;;;;;;;;;;;;;;;4980384;28;19963;-82
2023/01/14 07:27:42;;;;;;;;;;;;;;;;;;4997938;28;19978;-82
2023/01/14 07:30:08;;;;;;;;;;;;;;;;;;4980395;28;19910;-83
2023/01/14 07:32:34;;;;;;;;;;;;;;;;;;4980424;28;19913;-83
2023/01/14 07:34:59;;;;;;;;;;;;;;;;;;4980178;28;19914;-82
2023/01/14 07:37:25;;;;;;;;;;;;;;;;;;4979155;28;19975;-82
2023/01/14 07:39:51;;;;;;;;;;;;;;;;;;4979205;28;20341;-82
2023/01/14 07:42:17;;;;;;;;;;;;;;;;;;4980353;28;19910;-82
2023/01/14 07:44:43;;;;;;;;;;;;;;;;;;4983316;28;19933;-81
2023/01/14 07:47:09;;;;;;;;;;;;;;;;;;4980353;28;19914;-82
2023/01/14 07:49:39;;;;;;;;;;;;;;;;;;4996962;28;19960;-82
2023/01/14 07:52:04;;;;;;;;;;;;;;;;;;4979638;28;20382;-82
2023/01/14 07:54:30;;;;;;;;;;;;;;;;;;4979716;28;19909;-82
2023/01/14 07:56:56;;;;;;;;;;;;;;;;;;4979519;28;19910;-81
2023/01/14 07:59:22;;;;;;;;;;;;;;;;;;4979468;28;20381;-82
2023/01/14 08:01:48;;;;;;;;;;;;;;;;;;4980034;28;19934;-82
2023/01/14 08:04:14;;;;;;;;;;;;;;;;;;4980182;28;19966;-81
2023/01/14 08:06:40;;;;;;;;;;;;;;;;;;4981175;28;19921;-82
2023/01/14 08:14:30;;;;;;;;;;;;;;;;;;5048348;23;19925;-81
2023/01/14 08:16:56;;;;;;;;;;;;;;;;;;4998548;28;19910;-81
2023/01/14 08:27:21;;;;;;;;;;;;;;;;;;4996450;28;19932;-81
2023/01/14 08:29:47;;;;;;;;;;;;;;;;;;5003100;28;19949;-81
2023/01/14 08:32:13;;;;;;;;;;;;;;;;;;4983677;28;19910;-81
2023/01/14 08:37:14;;;;;;;;;;;;;;;;;;5095540;23;20022;-83
2023/01/14 09:04:14;;;;;;;;;;;;;;;;;;5499072;23;19984;-82
2023/01/14 09:22:14;;;;;;;;;;;;;;;;;;5614470;23;20346;-82
2023/01/14 09:27:45;;;;;;;;;;;;;;;;;;5008117;28;19997;-82
2023/01/14 09:30:10;;;;;;;;;;;;;;;;;;5492697;23;19932;-77
2023/01/14 09:50:47;;;;;;;;;;;;;;;;;;5865817;23;19932;-81
2023/01/14 09:55:50;;;;;;;;;;;;;;;;;;5295215;23;19972;-79
2023/01/14 09:58:16;;;;;;;;;;;;;;;;;;5000965;28;19916;-80
2023/01/14 10:00:42;;;;;;;;;;;;;;;;;;4998267;28;19909;-79
2023/01/14 10:03:07;;;;;;;;;;;;;;;;;;4998026;28;19910;-79
2023/01/14 10:05:34;;;;;;;;;;;;;;;;;;5000104;28;19975;-78
2023/01/14 10:08:00;;;;;;;;;;;;;;;;;;5003536;28;19955;-79
2023/01/14 10:10:26;;;;;;;;;;;;;;;;;;5026203;28;19917;-76
2023/01/14 10:12:52;;;;;;;;;;;;;;;;;;5016625;28;19909;-77
2023/01/14 10:15:18;;;;;;;;;;;;;;;;;;5009925;28;20378;-77
2023/01/14 10:17:44;;;;;;;;;;;;;;;;;;4997723;28;20285;-78
2023/01/14 10:51:47;;;;;;;;;;;;;;;;;;5486233;23;19916;-90
2023/01/14 11:12:48;;;;;;;;;;;;;;;;;;5641874;23;19925;-83
2023/01/14 11:15:14;;;;;;;;;;;;;;;;;;5033068;28;19916;-82
2023/01/14 11:17:40;;;;;;;;;;;;;;;;;;5011736;28;20333;-82
2023/01/14 11:20:05;;;;;;;;;;;;;;;;;;5011811;28;19914;-83
2023/01/14 11:22:31;;;;;;;;;;;;;;;;;;5011389;28;19909;-82
2023/01/14 11:24:57;;;;;;;;;;;;;;;;;;5010313;28;19914;-83
2023/01/14 11:27:23;;;;;;;;;;;;;;;;;;5019493;28;19913;-82
2023/01/14 11:35:15;;;;;;;;;;;;;;;;;;5671524;23;19956;-82
2023/01/14 11:37:42;;;;;;;;;;;;;;;;;;5006159;28;19917;-82
2023/01/14 11:40:08;;;;;;;;;;;;;;;;;;5025251;28;20008;-82
2023/01/14 11:42:34;;;;;;;;;;;;;;;;;;5005201;28;20452;-81
2023/01/14 11:45:00;;;;;;;;;;;;;;;;;;5012278;28;19940;-81
2023/01/14 11:47:26;;;;;;;;;;;;;;;;;;5009010;28;19913;-82
2023/01/14 13:00:27;;;;;;;;;;;;;;;;;;5296139;23;19909;-82
2023/01/14 13:02:54;;;;;;;;;;;;;;;;;;5028578;28;19910;-81
2023/01/14 13:05:20;;;;;;;;;;;;;;;;;;5027327;28;19921;-81
2023/01/14 13:07:46;;;;;;;;;;;;;;;;;;5010330;28;20012;-81
2023/01/14 13:10:12;;;;;;;;;;;;;;;;;;5001606;28;20378;-81
2023/01/14 13:12:37;;;;;;;;;;;;;;;;;;5000299;28;19910;-81
2023/01/14 13:15:03;;;;;;;;;;;;;;;;;;5015723;28;20406;-81
2023/01/14 13:17:32;;;;;;;;;;;;;;;;;;5006085;28;19916;-81
2023/01/14 13:19:58;;;;;;;;;;;;;;;;;;4999677;28;19949;-81
2023/01/14 13:22:23;;;;;;;;;;;;;;;;;;5001073;28;19917;-81
2023/01/14 13:24:49;;;;;;;;;;;;;;;;;;5000669;28;19920;-81
2023/01/14 13:27:15;;;;;;;;;;;;;;;;;;5000387;28;19916;-81
2023/01/14 13:34:54;;;;;;;;;;;;;;;;;;5016391;28;19925;-81
2023/01/14 13:37:20;;;;;;;;;;;;;;;;;;5003699;28;19955;-81
2023/01/14 13:39:46;;;;;;;;;;;;;;;;;;5002379;28;19917;-81
2023/01/14 13:42:12;;;;;;;;;;;;;;;;;;5020579;28;20429;-81
2023/01/14 13:44:38;;;;;;;;;;;;;;;;;;5001588;28;19894;-81
2023/01/14 13:47:04;;;;;;;;;;;;;;;;;;5020007;28;19917;-81
2023/01/14 13:54:45;;;;;;;;;;;;;;;;;;4996743;28;20001;-79
2023/01/14 13:57:11;;;;;;;;;;;;;;;;;;4988780;28;20385;-79
2023/01/14 13:59:36;;;;;;;;;;;;;;;;;;4998631;28;19910;-79
2023/01/14 14:02:02;;;;;;;;;;;;;;;;;;4988823;28;19910;-79
2023/01/14 14:04:28;;;;;;;;;;;;;;;;;;4987915;28;19917;-79
2023/01/14 14:06:55;;;;;;;;;;;;;;;;;;4998755;28;20004;-79
2023/01/14 14:09:22;;;;;;;;;;;;;;;;;;4980824;28;19917;-79
2023/01/14 14:11:48;;;;;;;;;;;;;;;;;;5000777;28;19914;-79
2023/01/14 14:14:14;;;;;;;;;;;;;;;;;;4981453;28;20381;-79
2023/01/14 14:16:42;;;;;;;;;;;;;;;;;;4979953;28;20454;-79
2023/01/14 14:19:08;;;;;;;;;;;;;;;;;;4998807;28;19937;-79
2023/01/14 14:21:34;;;;;;;;;;;;;;;;;;4980310;28;19910;-79
2023/01/14 14:24:00;;;;;;;;;;;;;;;;;;4999428;28;20055;-79
2023/01/14 14:26:26;;;;;;;;;;;;;;;;;;4997823;28;19913;-77
2023/01/14 14:28:52;;;;;;;;;;;;;;;;;;4996017;28;19924;-78
2023/01/14 14:31:18;;;;;;;;;;;;;;;;;;4996263;28;20371;-78
2023/01/14 14:33:44;;;;;;;;;;;;;;;;;;4978784;28;19909;-77
2023/01/14 14:36:10;;;;;;;;;;;;;;;;;;4978617;28;19910;-77
2023/01/14 14:38:36;;;;;;;;;;;;;;;;;;4995892;28;19949;-77
2023/01/14 14:41:02;;;;;;;;;;;;;;;;;;4978669;28;20421;-77
2023/01/14 14:43:28;;;;;;;;;;;;;;;;;;4978596;28;19914;-76
2023/01/14 14:45:54;;;;;;;;;;;;;;;;;;4995810;28;19920;-76
2023/01/14 14:48:20;;;;;;;;;;;;;;;;;;4978110;28;19909;-77
2023/01/14 14:50:46;;;;;;;;;;;;;;;;;;4996051;28;19917;-78
2023/01/14 14:53:11;;;;;;;;;;;;;;;;;;4995782;28;19976;-77
2023/01/14 14:55:37;;;;;;;;;;;;;;;;;;4995970;28;19909;-78
2023/01/14 14:58:03;;;;;;;;;;;;;;;;;;4978594;28;19968;-77
2023/01/14 15:00:29;;;;;;;;;;;;;;;;;;4978566;28;20289;-78
2023/01/14 15:02:55;;;;;;;;;;;;;;;;;;4978519;28;19910;-79
2023/01/14 15:05:21;;;;;;;;;;;;;;;;;;4995429;28;19977;-78
2023/01/14 15:07:47;;;;;;;;;;;;;;;;;;4995500;28;19910;-78
2023/01/14 15:10:13;;;;;;;;;;;;;;;;;;4978271;28;20354;-79
2023/01/14 15:12:39;;;;;;;;;;;;;;;;;;4995496;28;19940;-79
2023/01/14 15:15:05;;;;;;;;;;;;;;;;;;4995359;28;19909;-79
2023/01/14 15:17:31;;;;;;;;;;;;;;;;;;4977681;28;20009;-78
2023/01/14 15:19:57;;;;;;;;;;;;;;;;;;4995580;28;19910;-78
2023/01/14 15:22:23;;;;;;;;;;;;;;;;;;4975240;28;19906;-79
2023/01/14 15:24:51;;;;;;;;;;;;;;;;;;4977628;28;19914;-80
2023/01/14 15:27:18;;;;;;;;;;;;;;;;;;4995014;28;19932;-78
2023/01/14 15:29:45;;;;;;;;;;;;;;;;;;4995130;28;19997;-79
2023/01/14 15:32:11;;;;;;;;;;;;;;;;;;4977810;28;19910;-79
2023/01/14 15:34:36;;;;;;;;;;;;;;;;;;4977528;28;19916;-79
2023/01/14 15:37:03;;;;;;;;;;;;;;;;;;4978213;28;20382;-79
2023/01/14 15:39:29;;;;;;;;;;;;;;;;;;4973450;28;19910;-80
2023/01/14 15:41:55;;;;;;;;;;;;;;;;;;4995995;28;19910;-80
2023/01/14 15:44:21;;;;;;;;;;;;;;;;;;4978841;28;19910;-79
2023/01/14 15:46:47;;;;;;;;;;;;;;;;;;4977691;28;19914;-79
2023/01/14 15:49:13;;;;;;;;;;;;;;;;;;4978342;28;20330;-79
2023/01/14 15:51:42;;;;;;;;;;;;;;;;;;4995144;28;19957;-80
2023/01/14 15:56:46;;;;;;;;;;;;;;;;;;5501425;23;19965;-80
2023/01/14 15:59:29;;;;;;;;;;;;;;;;;;5153881;23;19957;-81
2023/01/14 16:07:26;;;;;;;;;;;;;;;;;;5199853;23;19910;-81
2023/01/14 16:33:26;;;;;;;;;;;;;;;;;;5544702;23;19925;-80
2023/01/14 16:46:01;;;;;;;;;;;;;;;;;;5010674;28;19925;-81
2023/01/14 16:48:30;;;;;;;;;;;;;;;;;;4992510;28;19963;-81
2023/01/14 16:51:02;;;;;;;;;;;;;;;;;;5018980;28;19956;-81
2023/01/14 16:53:28;;;;;;;;;;;;;;;;;;5001515;28;19982;-81
2023/01/14 16:55:54;;;;;;;;;;;;;;;;;;5002163;28;19910;-81
2023/01/14 16:58:20;;;;;;;;;;;;;;;;;;5000588;28;19894;-81
2023/01/14 17:00:46;;;;;;;;;;;;;;;;;;5018800;28;19909;-81
2023/01/14 17:03:12;;;;;;;;;;;;;;;;;;5018415;28;19999;-80
2023/01/14 17:05:38;;;;;;;;;;;;;;;;;;5018359;28;19921;-80
2023/01/14 17:08:04;;;;;;;;;;;;;;;;;;5016471;28;19937;-80
2023/01/14 17:10:30;;;;;;;;;;;;;;;;;;4998065;28;19910;-81
2023/01/14 17:20:44;;;;;;;;;;;;;;;;;;5546598;23;20012;-78
2023/01/14 17:23:10;;;;;;;;;;;;;;;;;;5014140;28;19953;-78
2023/01/14 17:25:36;;;;;;;;;;;;;;;;;;4995689;28;20409;-77
2023/01/14 17:28:02;;;;;;;;;;;;;;;;;;4995588;28;19964;-79
2023/01/14 17:30:27;;;;;;;;;;;;;;;;;;4995578;28;20382;-78
2023/01/14 17:32:53;;;;;;;;;;;;;;;;;;4995699;28;19922;-76
2023/01/14 17:35:19;;;;;;;;;;;;;;;;;;4995070;28;20282;-77
2023/01/14 17:37:45;;;;;;;;;;;;;;;;;;4994977;28;20011;-77
2023/01/14 17:40:12;;;;;;;;;;;;;;;;;;5012982;28;19909;-78
2023/01/14 17:42:38;;;;;;;;;;;;;;;;;;4995230;28;19917;-77
2023/01/14 17:45:03;;;;;;;;;;;;;;;;;;4995238;28;19913;-77
2023/01/14 17:47:29;;;;;;;;;;;;;;;;;;5012843;28;19910;-77
2023/01/14 17:49:55;;;;;;;;;;;;;;;;;;4995236;28;19914;-79
2023/01/14 17:52:21;;;;;;;;;;;;;;;;;;4995872;28;19917;-78
2023/01/14 17:54:47;;;;;;;;;;;;;;;;;;4995375;28;19917;-77
2023/01/14 17:57:18;;;;;;;;;;;;;;;;;;4996145;28;19910;-81
2023/01/14 17:59:44;;;;;;;;;;;;;;;;;;4997417;28;19916;-80
2023/01/14 18:02:10;;;;;;;;;;;;;;;;;;4996580;28;20008;-80
2023/01/14 18:04:36;;;;;;;;;;;;;;;;;;4996320;28;19916;-80
2023/01/14 18:07:02;;;;;;;;;;;;;;;;;;5014456;28;19929;-80
2023/01/14 18:09:28;;;;;;;;;;;;;;;;;;4996606;28;19909;-79
2023/01/14 18:11:54;;;;;;;;;;;;;;;;;;4996526;28;20069;-80
2023/01/14 18:14:20;;;;;;;;;;;;;;;;;;4996466;28;19909;-80
2023/01/14 18:16:46;;;;;;;;;;;;;;;;;;4995885;28;19916;-80
2023/01/14 18:19:12;;;;;;;;;;;;;;;;;;4996197;28;19909;-79
2023/01/14 18:21:37;;;;;;;;;;;;;;;;;;4996514;28;19944;-80
2023/01/14 18:24:03;;;;;;;;;;;;;;;;;;5015356;28;20378;-80
2023/01/14 18:26:29;;;;;;;;;;;;;;;;;;5000041;28;19913;-80
2023/01/14 18:28:55;;;;;;;;;;;;;;;;;;5000432;28;19910;-80
2023/01/14 18:31:21;;;;;;;;;;;;;;;;;;5000259;28;20366;-80
2023/01/14 18:33:48;;;;;;;;;;;;;;;;;;5000049;28;20425;-80
2023/01/14 18:36:14;;;;;;;;;;;;;;;;;;4999930;28;20004;-80
2023/01/14 18:38:40;;;;;;;;;;;;;;;;;;5000240;28;19960;-80
2023/01/14 18:41:06;;;;;;;;;;;;;;;;;;5000512;28;19909;-80
2023/01/14 18:43:31;;;;;;;;;;;;;;;;;;5001126;28;19929;-80
2023/01/14 18:45:57;;;;;;;;;;;;;;;;;;5017457;28;19913;-80
2023/01/14 18:48:23;;;;;;;;;;;;;;;;;;4999798;28;19910;-80
2023/01/14 18:50:49;;;;;;;;;;;;;;;;;;5016360;28;19910;-80
2023/01/14 18:53:15;;;;;;;;;;;;;;;;;;4999948;28;20314;-80
2023/01/14 18:55:41;;;;;;;;;;;;;;;;;;4999695;28;19916;-80
2023/01/14 18:58:07;;;;;;;;;;;;;;;;;;4999477;28;19917;-80
2023/01/14 19:00:33;;;;;;;;;;;;;;;;;;4999367;28;20370;-79
2023/01/14 19:02:59;;;;;;;;;;;;;;;;;;4999555;28;19967;-80
2023/01/14 19:05:24;;;;;;;;;;;;;;;;;;4999712;28;20024;-80
2023/01/14 19:07:53;;;;;;;;;;;;;;;;;;5000138;28;19909;-80
2023/01/14 19:10:19;;;;;;;;;;;;;;;;;;5000041;28;19913;-80
2023/01/14 19:12:45;;;;;;;;;;;;;;;;;;5000562;28;19910;-80
2023/01/14 19:15:11;;;;;;;;;;;;;;;;;;4998694;28;20290;-80
2023/01/14 19:17:37;;;;;;;;;;;;;;;;;;5000023;28;19917;-80
2023/01/14 19:20:03;;;;;;;;;;;;;;;;;;5016922;28;19945;-80
2023/01/14 19:22:29;;;;;;;;;;;;;;;;;;4999080;28;19913;-79
2023/01/14 19:24:54;;;;;;;;;;;;;;;;;;4998461;28;19952;-80
2023/01/14 19:27:20;;;;;;;;;;;;;;;;;;4998182;28;20019;-80
2023/01/14 19:29:46;;;;;;;;;;;;;;;;;;5016083;28;20012;-80
2023/01/14 19:32:13;;;;;;;;;;;;;;;;;;4998726;28;19916;-80
2023/01/14 19:34:40;;;;;;;;;;;;;;;;;;4998463;28;19913;-80
2023/01/14 19:37:06;;;;;;;;;;;;;;;;;;5015742;28;19956;-80
2023/01/14 19:39:32;;;;;;;;;;;;;;;;;;4998845;28;19913;-79
2023/01/14 19:41:58;;;;;;;;;;;;;;;;;;4998676;28;19988;-80
2023/01/14 19:44:24;;;;;;;;;;;;;;;;;;4998135;28;19909;-80
2023/01/14 19:46:50;;;;;;;;;;;;;;;;;;4998944;28;20013;-80
2023/01/14 19:49:16;;;;;;;;;;;;;;;;;;5015971;28;19910;-79
2023/01/14 19:51:42;;;;;;;;;;;;;;;;;;4998634;28;19910;-80
2023/01/14 19:54:07;;;;;;;;;;;;;;;;;;5012087;23;19925;-77
2023/01/14 19:56:33;;;;;;;;;;;;;;;;;;4999422;28;19932;-76
2023/01/14 19:58:59;;;;;;;;;;;;;;;;;;5016276;28;19909;-77
2023/01/14 20:01:25;;;;;;;;;;;;;;;;;;5016577;28;19921;-77
2023/01/14 20:03:51;;;;;;;;;;;;;;;;;;5016414;28;20374;-77
2023/01/14 20:06:17;;;;;;;;;;;;;;;;;;4999376;28;19928;-77
2023/01/14 20:08:44;;;;;;;;;;;;;;;;;;5016055;28;19909;-77
2023/01/14 20:11:10;;;;;;;;;;;;;;;;;;5015876;28;20267;-76
2023/01/14 20:13:36;;;;;;;;;;;;;;;;;;5015879;28;19916;-77
2023/01/14 20:16:02;;;;;;;;;;;;;;;;;;4998490;28;19910;-77
2023/01/14 20:18:30;;;;;;;;;;;;;;;;;;4998339;28;19940;-77
2023/01/14 20:20:56;;;;;;;;;;;;;;;;;;4998530;28;19909;-77
2023/01/14 20:23:22;;;;;;;;;;;;;;;;;;4998659;28;19910;-77
2023/01/14 20:25:49;;;;;;;;;;;;;;;;;;5016196;28;19917;-77
2023/01/14 20:28:19;;;;;;;;;;;;;;;;;;5016113;28;19980;-76
2023/01/14 20:30:44;;;;;;;;;;;;;;;;;;5015915;28;20367;-76
2023/01/14 20:33:10;;;;;;;;;;;;;;;;;;5015823;28;19924;-77
2023/01/14 20:35:36;;;;;;;;;;;;;;;;;;4997981;28;19910;-77
2023/01/14 20:38:02;;;;;;;;;;;;;;;;;;5015822;28;19964;-77
2023/01/14 20:40:28;;;;;;;;;;;;;;;;;;4997752;28;19913;-77
2023/01/14 20:42:54;;;;;;;;;;;;;;;;;;4997592;28;20015;-77
2023/01/14 20:45:20;;;;;;;;;;;;;;;;;;5016593;28;19982;-77
2023/01/14 20:50:31;;;;;;;;;;;;;;;;;;5014484;28;19916;-78
2023/01/14 20:52:57;;;;;;;;;;;;;;;;;;5015109;28;19992;-77
2023/01/14 20:55:23;;;;;;;;;;;;;;;;;;4997997;28;19956;-77
2023/01/14 20:57:49;;;;;;;;;;;;;;;;;;5014902;28;20004;-77
2023/01/14 21:00:15;;;;;;;;;;;;;;;;;;5015424;28;19910;-77
2023/01/14 21:02:41;;;;;;;;;;;;;;;;;;5014731;28;20373;-77
2023/01/14 21:05:07;;;;;;;;;;;;;;;;;;4997912;28;19913;-77
2023/01/14 21:07:33;;;;;;;;;;;;;;;;;;5016164;28;20259;-77
2023/01/14 21:09:59;;;;;;;;;;;;;;;;;;4997865;28;19917;-77
2023/01/14 21:12:25;;;;;;;;;;;;;;;;;;4997081;28;19916;-77
2023/01/14 21:23:04;;;;;;;;;;;;;;;;;;5015269;28;20420;-76
2023/01/14 21:25:31;;;;;;;;;;;;;;;;;;5015420;28;19914;-75
2023/01/14 21:27:57;;;;;;;;;;;;;;;;;;4996793;28;19997;-77
2023/01/14 21:30:23;;;;;;;;;;;;;;;;;;4997267;28;19956;-76
2023/01/14 21:32:49;;;;;;;;;;;;;;;;;;5015699;28;19910;-77